Time;durP1;ratioP1;P1;durP2;ratioP2;P2;SDS_P1;SDS_P2;PMS_P1;PMS_P2;Temp;Humidity;BMP_temperature;BMP_pressure;BME280_temperature;BME280_humidity;BME280_pressure;Samples;Min_cycle;Max_cycle;Signal;HPM_P1;HPM_P2
2022/10/26 00:00:51;;;;;;;9.93;0.63;;;;;;;17.36;92.26;100338.69;7386819;19;20035;-63
2022/10/26 00:03:22;;;;;;;5.25;0.93;;;;;;;17.35;92.02;100329.88;7382341;19;20499;-62
2022/10/26 00:05:52;;;;;;;4.95;0.60;;;;;;;17.38;91.65;100315.34;7386283;19;20018;-62
2022/10/26 00:08:23;;;;;;;3.85;0.70;;;;;;;17.36;91.97;100314.75;7384803;19;20479;-61
2022/10/26 00:10:50;;;;;;;8.40;3.45;;;;;;;17.37;92.05;100303.09;7383464;19;20022;-63
2022/10/26 00:13:17;;;;;;;7.53;1.67;;;;;;;17.38;92.76;100308.16;7381353;19;20129;-62
2022/10/26 00:15:44;;;;;;;5.50;0.50;;;;;;;17.40;92.72;100310.63;7386165;19;20058;-63
2022/10/26 00:18:11;;;;;;;8.45;0.85;;;;;;;17.39;92.38;100307.16;7384288;19;20022;-62
2022/10/26 00:20:37;;;;;;;6.95;0.68;;;;;;;17.39;92.00;100309.81;7384869;19;20018;-62
2022/10/26 00:23:04;;;;;;;6.47;0.73;;;;;;;17.38;91.79;100310.84;7379940;19;20333;-63
2022/10/26 00:25:31;;;;;;;4.20;0.65;;;;;;;17.39;91.89;100309.81;7386391;19;20014;-62
2022/10/26 00:27:58;;;;;;;6.20;0.70;;;;;;;17.40;91.71;100298.16;7383118;19;20032;-62
2022/10/26 00:30:25;;;;;;;7.32;0.50;;;;;;;17.44;92.03;100309.19;7382730;19;20647;-63
2022/10/26 00:32:52;;;;;;;5.53;0.70;;;;;;;17.48;91.81;100310.38;7380403;19;20436;-64
2022/10/26 00:35:19;;;;;;;9.55;1.13;;;;;;;17.49;91.26;100302.19;7385467;19;20011;-63
2022/10/26 00:37:54;;;;;;;4.53;0.50;;;;;;;17.47;91.18;100298.13;7385155;19;20021;-62
2022/10/26 00:40:27;;;;;;;6.15;0.85;;;;;;;17.47;91.16;100301.59;7382570;19;20029;-62
2022/10/26 00:42:53;;;;;;;;;;;;;;;17.48;91.06;100300.56;7378859;19;20019;-62
2022/10/26 00:45:27;;;;;;;;;;;;;;;17.48;90.96;100305.06;7384776;19;19914;-61
2022/10/26 00:48:10;;;;;;;;;;;;;;;17.50;91.46;100295.84;7385389;19;19942;-61
2022/10/26 00:50:42;;;;;;;;;;;;;;;17.51;91.06;100292.19;7385893;19;19914;-62
2022/10/26 00:53:10;;;;;;;;;;;;;;;17.55;91.06;100279.25;7382675;19;19922;-62
2022/10/26 00:55:38;;;;;;;;;;;;;;;17.57;90.46;100289.69;7384582;19;20629;-63
2022/10/26 00:58:07;;;;;;;;;;;;;;;17.59;90.52;100288.47;7382668;19;20300;-63
2022/10/26 01:00:34;;;;;;;;;;;;;;;17.62;90.49;100292.56;7383030;19;19922;-62
2022/10/26 01:03:04;;;;;;;;;;;;;;;17.61;90.52;100289.09;7382855;19;19943;-62
2022/10/26 01:05:36;;;;;;;;;;;;;;;17.65;90.87;100273.50;7381893;19;20259;-63
2022/10/26 01:08:03;;;;;;;;;;;;;;;17.65;90.65;100274.34;7387027;19;19918;-63
2022/10/26 01:10:29;;;;;;;;;;;;;;;17.66;90.55;100275.16;7393738;19;19918;-62
2022/10/26 01:12:57;;;;;;;;;;;;;;;17.66;90.39;100267.97;7382247;19;19914;-62
2022/10/26 01:15:30;;;;;;;;;;;;;;;17.67;90.33;100266.97;7389634;19;19923;-61
2022/10/26 01:17:59;;;;;;;;;;;;;;;17.68;90.41;100267.75;7392067;19;20007;-61
2022/10/26 01:20:43;;;;;;;;;;;;;;;17.68;90.86;100271.22;7390044;19;19944;-62
2022/10/26 01:23:10;;;;;;;;;;;;;;;17.69;91.09;100272.88;7392711;19;19942;-62
2022/10/26 01:25:52;;;;;;;;;;;;;;;17.72;91.00;100277.78;7393161;19;19939;-62
2022/10/26 01:28:50;;;;;;;;;;;;;;;17.71;90.66;100275.31;7388542;19;19947;-64
2022/10/26 01:31:22;;;;;;;;;;;;;;;17.71;91.03;100268.16;7385298;19;19927;-61
2022/10/26 01:33:58;;;;;;;;;;;;;;;17.71;90.66;100262.84;7390099;19;20272;-61
2022/10/26 01:36:31;;;;;;;;;;;;;;;17.70;90.88;100261.19;7391819;19;20322;-61
2022/10/26 01:39:23;;;;;;;;;;;;;;;17.72;90.97;100258.34;7388968;19;19926;-61
2022/10/26 01:41:53;;;;;;;;;;;;;;;17.71;91.17;100254.84;7387415;19;19923;-62
2022/10/26 01:44:24;;;;;;;;;;;;;;;17.71;91.18;100257.53;7391033;19;19922;-62
2022/10/26 01:46:53;;;;;;;;;;;;;;;17.70;91.13;100260.38;7391131;19;19952;-61
2022/10/26 01:49:21;;;;;;;;;;;;;;;17.71;91.04;100264.69;7389888;19;19918;-61
2022/10/26 01:51:49;;;;;;;;;;;;;;;17.70;91.20;100263.88;7389964;19;20390;-62
2022/10/26 01:54:16;;;;;;;;;;;;;;;17.68;91.33;100265.91;7390533;19;20160;-62
2022/10/26 01:56:50;;;;;;;;;;;;;;;17.71;92.05;100265.50;7388717;19;20269;-62
2022/10/26 01:59:29;;;;;;;;;;;;;;;17.74;92.14;100270.38;7390674;19;19943;-61
2022/10/26 02:02:13;;;;;;;;;;;;;;;17.77;91.86;100277.16;7388600;19;20632;-63
2022/10/26 02:04:57;;;;;;;;;;;;;;;17.77;91.87;100274.47;7388184;19;19970;-62
2022/10/26 02:07:38;;;;;;;;;;;;;;;17.76;91.65;100271.00;7391249;19;19950;-63
2022/10/26 02:10:17;;;;;;;;;;;;;;;17.76;91.52;100267.53;7390425;19;19918;-61
2022/10/26 02:12:48;;;;;;;;;;;;;;;17.75;91.55;100269.38;7384319;19;19922;-61
2022/10/26 02:15:23;;;;;;;;;;;;;;;17.75;92.10;100268.53;7388276;19;20516;-62
2022/10/26 02:17:57;;;;;;;;;;;;;;;17.76;92.27;100255.03;7390358;19;19923;-63
2022/10/26 02:20:27;;;;;;;;;;;;;;;17.75;92.23;100253.41;7384794;19;19943;-62
2022/10/26 02:22:55;;;;;;;;;;;;;;;17.75;91.86;100256.06;7389406;19;19947;-62
2022/10/26 02:25:29;;;;;;;;;;;;;;;17.75;91.97;100249.91;7390867;19;19931;-61
2022/10/26 02:28:01;;;;;;;;;;;;;;;17.75;92.07;100244.59;7386184;19;20597;-63
2022/10/26 02:30:28;;;;;;;;;;;;;;;17.74;92.22;100242.94;7391359;19;19947;-63
2022/10/26 02:32:56;;;;;;;;;;;;;;;17.76;92.75;100239.06;7387442;19;20299;-63
2022/10/26 02:35:28;;;;;;;;;;;;;;;17.78;92.80;100233.50;7389793;19;20407;-63
2022/10/26 02:37:57;;;;;;;;;;;;;;;17.79;92.69;100237.81;7390374;19;19968;-63
2022/10/26 02:40:25;;;;;;;;;;;;;;;17.78;92.59;100239.66;7389958;19;19918;-62
2022/10/26 02:42:52;;;;;;;;;;;;;;;17.78;92.74;100246.81;7385640;19;19923;-62
2022/10/26 02:45:29;;;;;;;;;;;;;;;17.77;92.62;100246.03;7389546;19;19947;-62
2022/10/26 02:47:56;;;;;;;;;;;;;;;17.80;93.49;100242.09;7389885;19;19923;-62
2022/10/26 02:50:28;;;;;;;;;;;;;;;17.81;93.17;100246.41;7388318;19;20565;-62
2022/10/26 02:52:58;;;;;;;;;;;;;;;17.81;93.04;100241.91;7388672;19;20490;-62
2022/10/26 02:55:32;;;;;;;;;;;;;;;17.80;93.11;100242.91;7390436;19;20297;-63
2022/10/26 02:58:01;;;;;;;;;;;;;;;17.78;92.78;100233.50;7384745;19;19952;-62
2022/10/26 03:00:28;;;;;;;;;;;;;;;17.77;92.92;100226.56;7390337;19;19947;-63
2022/10/26 03:02:56;;;;;;;;;;;;;;;17.73;93.77;100223.50;7387982;19;19968;-63
2022/10/26 03:05:24;;;;;;;;;;;;;;;17.75;93.87;100223.31;7386942;19;19919;-63
2022/10/26 03:07:52;;;;;;;;;;;;;;;17.74;93.83;100219.00;7388997;19;20329;-63
2022/10/26 03:10:19;;;;;;;;;;;;;;;17.75;93.57;100212.66;7390570;19;19922;-63
2022/10/26 03:12:45;;;;;;;;;;;;;;;17.74;93.54;100214.50;7382429;19;20213;-62
2022/10/26 03:15:12;;;;;;;;;;;;;;;17.71;93.60;100206.13;7388296;19;19923;-62
2022/10/26 03:17:39;;;;;;;;;;;;;;;17.71;93.99;100211.47;7388312;19;19952;-62
2022/10/26 03:20:06;;;;;;;;;;;;;;;17.73;94.32;100212.03;7388264;19;19922;-62
2022/10/26 03:22:33;;;;;;;;;;;;;;;17.73;94.47;100206.72;7386233;19;19938;-63
2022/10/26 03:24:59;;;;;;;;;;;;;;;17.73;94.11;100212.03;7385507;19;19919;-63
2022/10/26 03:27:26;;;;;;;;;;;;;;;17.71;94.16;100216.78;7384746;19;19922;-63
2022/10/26 03:29:53;;;;;;;;;;;;;;;17.67;93.85;100208.41;7384053;19;19945;-62
2022/10/26 03:32:19;;;;;;;;;;;;;;;17.66;94.23;100209.44;7385632;19;19918;-62
2022/10/26 03:34:46;;;;;;;;;;;;;;;17.68;94.72;100207.38;7389024;19;20006;-62
2022/10/26 03:37:13;;;;;;;;;;;;;;;17.68;94.80;100207.38;7388282;19;20275;-66
2022/10/26 03:39:39;;;;;;;;;;;;;;;17.67;94.97;100202.28;7389007;19;19946;-63
2022/10/26 03:42:06;;;;;;;;;;;;;;;17.65;94.81;100201.66;7384411;19;19939;-63
2022/10/26 03:44:33;;;;;;;;;;;;;;;17.65;94.99;100206.97;7388072;19;20607;-61
2022/10/26 03:46:59;;;;;;;;;;;;;;;17.63;95.05;100212.50;7386076;19;19923;-63
2022/10/26 03:49:26;;;;;;;;;;;;;;;17.63;95.15;100215.16;7387814;19;19914;-62
2022/10/26 03:51:52;;;;;;;;;;;;;;;17.65;95.66;100221.09;7388022;19;19919;-62
2022/10/26 03:54:19;;;;;;;;;;;;;;;17.67;95.43;100226.22;7386579;19;19918;-62
2022/10/26 03:56:46;;;;;;;;;;;;;;;17.67;95.46;100234.22;7385358;19;19947;-61
2022/10/26 03:59:19;;;;;;;;;;;;;;;17.67;95.18;100234.22;7386484;19;20251;-61
2022/10/26 04:01:46;;;;;;;;;;;;;;;17.65;95.53;100239.72;7387517;19;19953;-61
2022/10/26 04:04:12;;;;;;;;;;;;;;;17.66;95.48;100224.59;7383434;19;19928;-62
2022/10/26 04:06:39;;;;;;;;;;;;;;;17.67;95.68;100232.38;7385766;19;19915;-61
2022/10/26 04:09:07;;;;;;;;;;;;;;;17.72;95.91;100234.38;7387665;19;19974;-62
2022/10/26 04:11:34;;;;;;;;;;;;;;;17.73;95.80;100231.50;7384636;19;19926;-62
2022/10/26 04:14:08;;;;;;;;;;;;;;;17.74;95.69;100235.78;7384573;19;19927;-61
2022/10/26 04:16:35;;;;;;;;;;;;;;;17.75;95.47;100236.59;7386757;19;19959;-62
2022/10/26 04:19:01;;;;;;;;;;;;;;;17.77;95.59;100231.91;7388674;19;20250;-62
2022/10/26 04:21:28;;;;;;;;;;;;;;;17.78;95.45;100236.16;7387219;19;20400;-61
2022/10/26 04:23:58;;;;;;;;;;;;;;;17.80;95.97;100232.28;7381016;19;19926;-60
2022/10/26 04:26:24;;;;;;;;;;;;;;;17.82;95.79;100234.72;7385781;19;19911;-61
2022/10/26 04:28:52;;;;;;;;;;;;;;;17.83;96.04;100237.16;7385471;19;19922;-62
2022/10/26 04:31:23;;;;;;;;;;;;;;;17.83;95.81;100237.16;7384999;19;19938;-62
2022/10/26 04:33:56;;;;;;;;;;;;;;;17.83;95.76;100231.84;7383011;19;19939;-61
2022/10/26 04:36:23;;;;;;;;;;;;;;;17.82;95.52;100235.56;7382116;19;20644;-62
2022/10/26 04:38:49;;;;;;;;;;;;;;;17.84;95.44;100240.63;7385917;19;19943;-62
2022/10/26 04:41:16;;;;;;;;;;;;;;;17.89;96.30;100246.13;7382373;19;19926;-62
2022/10/26 04:43:43;;;;;;;;;;;;;;;17.93;96.14;100247.34;7389193;19;19922;-62
2022/10/26 04:46:12;;;;;;;;;;;;;;;17.93;95.92;100247.34;7392382;19;20609;-62
2022/10/26 04:48:42;;;;;;;;;;;;;;;17.93;96.09;100248.16;7394815;19;19922;-62
2022/10/26 04:51:08;;;;;;;;;;;;;;;17.91;95.71;100250.22;7391572;19;19934;-63
2022/10/26 04:53:35;;;;;;;;;;;;;;;17.92;95.71;100256.38;7391905;19;20211;-62
2022/10/26 04:56:02;;;;;;;;;;;;;;;17.93;95.90;100252.66;7389967;19;19915;-62
2022/10/26 04:58:29;;;;;;;;;;;;;;;17.96;96.35;100257.56;7389020;19;19952;-62
2022/10/26 05:00:55;;;;;;;;;;;;;;;17.98;96.11;100260.03;7391246;19;19926;-62
2022/10/26 05:03:22;;;;;;;;;;;;;;;17.99;95.95;100258.97;7392345;19;20400;-61
2022/10/26 05:05:49;;;;;;;;;;;;;;;17.98;95.50;100260.03;7392400;19;20300;-61
2022/10/26 05:08:15;;;;;;;;;;;;;;;17.98;96.14;100268.81;7392353;19;20615;-61
2022/10/26 05:10:46;;;;;;;;;;;;;;;17.99;96.03;100275.75;7390664;19;19915;-61
2022/10/26 05:13:13;;;;;;;;;;;;;;;18.00;95.81;100274.75;7389292;19;19926;-61
2022/10/26 05:15:39;;;;;;;;;;;;;;;17.99;96.19;100275.75;7390898;19;20372;-62
2022/10/26 05:18:07;;;;;;;;;;;;;;;18.01;96.41;100284.38;7392119;19;19922;-62
2022/10/26 05:20:35;;;;;;;;;;;;;;;17.99;95.95;100289.06;7392414;19;19946;-63
2022/10/26 05:23:05;;;;;;;;;;;;;;;17.98;95.86;100297.28;7393075;19;19918;-63
2022/10/26 05:25:34;;;;;;;;;;;;;;;17.98;96.21;100308.72;7390685;19;19914;-61
2022/10/26 05:28:01;;;;;;;;;;;;;;;17.97;96.10;100308.97;7389700;19;20337;-63
2022/10/26 05:30:28;;;;;;;;;;;;;;;18.00;96.17;100314.69;7391453;19;20333;-62
2022/10/26 05:32:56;;;;;;;;;;;;;;;18.01;96.20;100315.50;7389325;19;19926;-61
2022/10/26 05:35:22;;;;;;;;;;;;;;;17.99;96.16;100314.88;7390914;19;19918;-62
2022/10/26 05:37:49;;;;;;;;;;;;;;;17.99;95.90;100309.56;7391358;19;19927;-62
2022/10/26 05:40:16;;;;;;;;;;;;;;;17.98;95.92;100311.41;7392192;19;19919;-63
2022/10/26 05:42:43;;;;;;;;;;;;;;;17.96;95.59;100313.47;7389006;19;20293;-62
2022/10/26 05:45:10;;;;;;;;;;;;;;;17.94;94.92;100321.66;7389543;19;19918;-63
2022/10/26 05:47:41;;;;;;;;;;;;;;;17.96;95.79;100321.47;7391449;19;20290;-62
2022/10/26 05:50:08;;;;;;;;;;;;;;;17.95;95.46;100328.63;7390469;19;19919;-63
2022/10/26 05:52:39;;;;;;;;;;;;;;;17.93;95.06;100332.53;7391384;19;19935;-62
2022/10/26 05:55:07;;;;;;;;;;;;;;;17.92;94.79;100337.06;7389421;19;19956;-62
2022/10/26 05:57:34;;;;;;;;;;;;;;;17.90;94.86;100338.28;7388723;19;19918;-66
2022/10/26 06:00:02;;;;;;;;;;;;;;;17.88;94.04;100343.81;7389662;19;19947;-62
2022/10/26 06:02:34;;;;;;;;;;;;;;;17.87;94.01;100347.53;7391672;19;19943;-62
2022/10/26 06:05:04;;;;;;;;;;;;;;;17.86;93.86;100345.06;7389391;19;20090;-62
2022/10/26 06:07:32;;;;;;;;;;;;;;;17.86;93.95;100342.41;7388611;19;19974;-62
2022/10/26 06:09:58;;;;;;;;;;;;;;;17.84;93.24;100339.94;7387571;19;20350;-62
2022/10/26 06:12:25;;;;;;;;;;;;;;;17.87;93.08;100341.38;7386876;19;19922;-62
2022/10/26 06:14:52;;;;;;;;;;;;;;;17.85;92.78;100336.25;7388819;19;19922;-62
2022/10/26 06:17:34;;;;;;;;;;;;;;;17.85;92.33;100344.25;7388761;19;19918;-62
2022/10/26 06:20:10;;;;;;;;;;;;;;;17.85;92.41;100332.78;7389940;19;19914;-62
2022/10/26 06:23:34;;;;;;;;;;;;;;;17.83;92.17;100345.47;7386774;19;19956;-62
2022/10/26 06:26:08;;;;;;;;;;;;;;;17.80;91.48;100346.72;7383762;19;19918;-62
2022/10/26 06:28:53;;;;;;;;;;;;;;;17.80;90.84;100357.38;7383995;19;19923;-61
2022/10/26 06:31:20;;;;;;;;;;;;;;;17.79;90.86;100352.25;7383875;19;19919;-62
2022/10/26 06:33:47;;;;;;;;;;;;;;;17.81;90.90;100359.00;7387758;19;19927;-62
2022/10/26 06:36:14;;;;;;;;;;;;;;;17.81;91.29;100350.22;7387729;19;20411;-61
2022/10/26 06:38:43;;;;;;;;;;;;;;;17.83;91.90;100356.94;7389725;19;19922;-62
2022/10/26 06:41:18;;;;;;;;;;;;;;;17.82;91.75;100360.66;7389343;19;19930;-62
2022/10/26 06:43:45;;;;;;;;;;;;;;;17.80;91.46;100361.88;7389174;19;19915;-62
2022/10/26 06:46:30;;;;;;;;;;;;;;;17.81;92.11;100360.84;7387770;19;19919;-62
2022/10/26 06:49:10;;;;;;;;;;;;;;;17.79;91.91;100371.72;7387710;19;20251;-63
2022/10/26 06:51:43;;;;;;;;;;;;;;;17.82;92.67;100381.13;7390118;19;19939;-62
2022/10/26 06:54:24;;;;;;;;;;;;;;;17.84;92.89;100379.88;7388569;19;19910;-62
2022/10/26 06:56:52;;;;;;;;;;;;;;;17.93;94.30;100383.09;7384791;19;20509;-62
2022/10/26 06:59:30;;;;;;;;;;;;;;;17.97;94.32;100388.84;7388184;19;19918;-62
2022/10/26 07:01:57;;;;;;;;;;;;;;;17.98;93.82;100383.28;7387486;19;19961;-61
2022/10/26 07:04:29;;;;;;;;;;;;;;;17.95;92.86;100375.72;7387879;19;20324;-62
2022/10/26 07:06:56;;;;;;;;;;;;;;;17.93;91.84;100381.25;7387550;19;19951;-62
2022/10/26 07:09:23;;;;;;;;;;;;;;;17.92;91.90;100386.81;7387817;19;20591;-62
2022/10/26 07:11:49;;;;;;;;;;;;;;;17.91;92.67;100394.00;7386613;19;19940;-63
2022/10/26 07:14:16;;;;;;;;;;;;;;;17.90;92.60;100384.34;7386892;19;19919;-62
2022/10/26 07:16:43;;;;;;;;;;;;;;;17.90;92.08;100388.88;7388189;19;19929;-62
2022/10/26 07:19:09;;;;;;;;;;;;;;;17.90;92.45;100383.53;7387029;19;19936;-63
2022/10/26 07:21:36;;;;;;;;;;;;;;;17.90;92.50;100391.53;7389434;19;19918;-61
2022/10/26 07:24:03;;;;;;;;;;;;;;;17.91;92.74;100391.31;7388406;19;20336;-62
2022/10/26 07:26:30;;;;;;;;;;;;;;;17.90;91.98;100405.66;7385873;19;19994;-63
2022/10/26 07:28:56;;;;;;;;;;;;;;;17.90;92.35;100410.97;7382936;19;20226;-61
2022/10/26 07:31:24;;;;;;;;;;;;;;;17.93;92.80;100420.38;7387755;19;19943;-60
2022/10/26 07:33:57;;;;;;;;;;;;;;;17.95;92.36;100426.31;7387883;19;19926;-61
2022/10/26 07:36:24;;;;;;;;;;;;;;;17.93;92.23;100423.84;7386898;19;19926;-60
2022/10/26 07:38:52;;;;;;;;;;;;;;;17.93;92.28;100423.84;7384044;19;19918;-61
2022/10/26 07:41:19;;;;;;;;;;;;;;;17.96;92.51;100425.31;7384000;19;19939;-60
2022/10/26 07:43:53;;;;;;;;;;;;;;;17.97;92.17;100418.13;7382321;19;19927;-61
2022/10/26 07:46:19;;;;;;;;;;;;;;;17.99;92.03;100421.38;7386568;19;19922;-62
2022/10/26 07:48:46;;;;;;;;;;;;;;;17.99;91.79;100430.19;7387741;19;19943;-62
2022/10/26 07:51:13;;;;;;;;;;;;;;;18.01;92.04;100440.63;7385315;19;19915;-62
2022/10/26 07:53:40;;;;;;;;;;;;;;;18.02;91.87;100429.78;7386064;19;20046;-63
2022/10/26 07:56:07;;;;;;;;;;;;;;;18.05;91.85;100439.19;7384627;19;19926;-61
2022/10/26 07:58:33;;;;;;;;;;;;;;;18.08;92.19;100438.78;7382039;19;19965;-62
2022/10/26 08:01:07;;;;;;;;;;;;;;;18.10;91.54;100442.84;7386045;19;20552;-62
2022/10/26 08:03:34;;;;;;;;;;;;;;;18.10;91.04;100447.34;7386685;19;19930;-62
2022/10/26 08:06:03;;;;;;;;;;;;;;;18.12;91.23;100455.97;7384756;19;19942;-63
2022/10/26 08:08:30;;;;;;;;;;;;;;;18.15;90.84;100459.00;7386655;19;19930;-62
2022/10/26 08:10:57;;;;;;;;;;;;;;;18.15;90.69;100456.34;7387088;19;19919;-62
2022/10/26 08:13:24;;;;;;;;;;;;;;;18.16;90.41;100465.97;7383718;19;19931;-62
2022/10/26 08:15:57;;;;;;;;;;;;;;;18.16;89.98;100463.31;7384998;19;19922;-62
2022/10/26 08:18:24;;;;;;;;;;;;;;;18.20;90.85;100472.50;7387969;19;19943;-62
2022/10/26 08:20:51;;;;;;;;;;;;;;;18.25;90.66;100466.56;7386401;19;19946;-62
2022/10/26 08:23:18;;;;;;;;;;;;;;;18.29;90.26;100459.75;7382511;19;20416;-63
2022/10/26 08:25:44;;;;;;;;;;;;;;;18.32;89.69;100472.69;7385017;19;20368;-63
2022/10/26 08:28:11;;;;;;;;;;;;;;;18.34;89.62;100475.94;7383174;19;19927;-62
2022/10/26 08:30:38;;;;;;;;;;;;;;;18.36;89.58;100485.34;7384121;19;19923;-62
2022/10/26 08:33:06;;;;;;;;;;;;;;;18.38;89.54;100471.84;7384721;19;19926;-61
2022/10/26 08:35:33;;;;;;;;;;;;;;;18.39;89.28;100484.94;7382950;19;19938;-62
2022/10/26 08:38:00;;;;;;;;;;;;;;;18.42;89.21;100474.88;7384284;19;19914;-61
2022/10/26 08:40:31;;;;;;;;;;;;;;;18.41;88.99;100476.72;7385121;19;19911;-61
2022/10/26 08:43:04;;;;;;;;;;;;;;;18.42;88.86;100478.38;7381734;19;19946;-62
2022/10/26 08:45:42;;;;;;;;;;;;;;;18.44;88.83;100478.16;7385542;19;19933;-62
2022/10/26 08:48:23;;;;;;;;;;;;;;;18.49;88.91;100487.13;7386025;19;19943;-63
2022/10/26 08:50:49;;;;;;;;;;;;;;;18.53;89.10;100495.53;7385818;19;19930;-62
2022/10/26 08:53:28;;;;;;;;;;;;;;;18.55;88.32;100491.66;7385329;19;19934;-61
2022/10/26 08:55:56;;;;;;;;;;;;;;;18.57;88.15;100496.78;7382010;19;20293;-62
2022/10/26 08:58:27;;;;;;;;;;;;;;;18.59;88.03;100494.72;7380224;19;19927;-62
2022/10/26 09:00:54;;;;;;;;;;;;;;;18.59;88.37;100492.84;7384937;19;20022;-61
2022/10/26 09:03:21;;;;;;;;;;;;;;;18.60;88.12;100491.81;7385925;19;20010;-61
2022/10/26 09:05:50;;;;;;;;;;;;;;;18.60;87.72;100493.66;7386623;19;20670;-60
2022/10/26 09:08:30;;;;;;;;;;;;;;;18.63;87.38;100498.59;7384472;19;19943;-61
2022/10/26 09:11:15;;;;;;;;;;;;;;;18.65;87.30;100491.19;7385039;19;19939;-62
2022/10/26 09:13:47;;;;;;;;;;;;;;;18.66;87.64;100492.81;7382782;19;19915;-63
2022/10/26 09:16:15;;;;;;;;;;;;;;;18.68;87.59;100477.44;7382962;19;19922;-62
2022/10/26 09:18:47;;;;;;;;;;;;;;;18.70;87.82;100484.19;7383296;19;19915;-63
2022/10/26 09:21:33;;;;;;;;;;;;;;;18.73;87.75;100475.78;7385983;19;20372;-63
2022/10/26 09:24:20;;;;;;;;;;;;;;;18.75;87.16;100479.03;7381337;19;20307;-64
2022/10/26 09:26:54;;;;;;;;;;;;;;;18.78;87.45;100485.78;7382099;19;19926;-63
2022/10/26 09:29:26;;;;;;;;;;;;;;;18.80;87.14;100483.69;7388835;19;19918;-62
2022/10/26 09:31:54;;;;;;;;;;;;;;;18.84;87.38;100484.13;7393545;19;19954;-62
2022/10/26 09:34:25;;;;;;;;;;;;;;;18.86;87.43;100488.19;7389910;19;19915;-62
2022/10/26 09:36:54;;;;;;;;;;;;;;;18.89;87.57;100502.94;7390310;19;19933;-62
2022/10/26 09:39:37;;;;;;;;;;;;;;;18.90;86.84;100513.38;7392112;19;20273;-61
2022/10/26 09:42:24;;;;;;;;;;;;;;;18.91;86.54;100506.19;7389903;19;19914;-63
2022/10/26 09:44:54;;;;;;;;;;;;;;;18.91;87.08;100508.88;7390033;19;19910;-62
2022/10/26 09:47:37;;;;;;;;;;;;;;;18.93;86.89;100522.81;7391184;19;19914;-62
2022/10/26 09:50:04;;;;;;;;;;;;;;;18.93;86.83;100512.97;7391848;19;19914;-63
2022/10/26 09:52:31;;;;;;;;;;;;;;;18.93;86.74;100512.97;7391961;19;19971;-62
2022/10/26 09:54:57;;;;;;;;;;;;;;;18.94;86.41;100506.63;7388406;19;19948;-62
2022/10/26 09:57:24;;;;;;;;;;;;;;;18.96;86.70;100519.72;7386529;19;19967;-62
2022/10/26 09:59:54;;;;;;;;;;;;;;;18.96;86.73;100519.72;7389175;19;19955;-63
2022/10/26 10:02:43;;;;;;;;;;;;;;;18.98;86.93;100525.66;7390481;19;19921;-62
2022/10/26 10:05:40;;;;;;;;;;;;;;;18.99;87.39;100527.28;7390065;19;19935;-63
2022/10/26 10:08:23;;;;;;;;;;;;;;;19.06;87.56;100538.72;7386827;19;19931;-62
2022/10/26 10:10:58;;;;;;;;;;;;;;;19.07;87.37;100538.50;7391066;19;19962;-63
2022/10/26 10:13:29;;;;;;;;;;;;;;;19.08;87.39;100539.34;7384916;19;19979;-62
2022/10/26 10:16:23;;;;;;;;;;;;;;;19.10;87.24;100543.41;7389990;19;20576;-62
2022/10/26 10:18:55;;;;;;;;;;;;;;;19.08;87.94;100548.16;7389605;19;19978;-63
2022/10/26 10:21:36;;;;;;;;;;;;;;;19.08;87.97;100550.00;7388315;19;19914;-62
2022/10/26 10:24:21;;;;;;;;;;;;;;;19.06;88.23;100563.53;7392618;19;19923;-62
2022/10/26 10:27:11;;;;;;;;;;;;;;;19.09;87.68;100568.47;7386871;19;19956;-62
2022/10/26 10:29:48;;;;;;;;;;;;;;;19.10;87.63;100577.25;7387832;19;19949;-62
2022/10/26 10:32:16;;;;;;;;;;;;;;;19.06;87.63;100581.41;7387925;19;19929;-62
2022/10/26 10:34:43;;;;;;;;;;;;;;;19.06;87.99;100587.56;7387615;19;19915;-61
2022/10/26 10:37:22;;;;;;;;;;;;;;;19.08;88.35;100590.00;7388940;19;19953;-62
2022/10/26 10:39:52;;;;;;;;;;;;;;;19.10;88.59;100591.41;7387136;19;19919;-63
2022/10/26 10:42:29;;;;;;;;;;;;;;;19.13;87.71;100593.69;7386165;19;20312;-60
2022/10/26 10:44:57;;;;;;;;;;;;;;;19.16;87.56;100603.91;7389450;19;19919;-61
2022/10/26 10:47:31;;;;;;;;;;;;;;;19.19;87.40;100614.16;7389860;19;20070;-61
2022/10/26 10:50:02;;;;;;;;;;;;;;;19.23;87.27;100619.88;7390276;19;20002;-62
2022/10/26 10:52:34;;;;;;;;;;;;;;;19.25;86.74;100619.69;7389674;19;19954;-64
2022/10/26 10:55:13;;;;;;;;;;;;;;;19.26;86.75;100613.28;7387415;19;19982;-61
2022/10/26 10:57:43;;;;;;;;;;;;;;;19.30;86.74;100633.19;7383630;19;20315;-61
2022/10/26 11:00:11;;;;;;;;;;;;;;;19.34;86.40;100623.72;7386899;19;20333;-61
2022/10/26 11:02:38;;;;;;;;;;;;;;;19.35;84.71;100628.81;7387690;19;20277;-61
2022/10/26 11:05:19;;;;;;;;;;;;;;;19.37;83.66;100634.78;7387472;19;19926;-62
2022/10/26 11:07:54;;;;;;;;;;;;;;;19.42;83.71;100634.94;7388892;19;20333;-62
2022/10/26 11:10:23;;;;;;;;;;;;;;;19.46;83.25;100627.34;7385447;19;20926;-63
2022/10/26 11:12:55;;;;;;;;;;;;;;;19.50;82.90;100637.41;7384874;19;19947;-62
2022/10/26 11:15:27;;;;;;;;;;;;;;;19.55;80.81;100644.78;7387674;19;19915;-62
2022/10/26 11:17:53;;;;;;;;;;;;;;;19.57;80.21;100648.03;7385867;19;19946;-61
2022/10/26 11:20:21;;;;;;;;;;;;;;;19.58;79.06;100655.00;7381002;19;19950;-62
2022/10/26 11:22:51;;;;;;;;;;;;;;;19.62;78.62;100656.19;7385160;19;19927;-62
2022/10/26 11:25:23;;;;;;;;;;;;;;;19.66;78.24;100656.59;7382679;19;19934;-62
2022/10/26 11:27:53;;;;;;;;;;;;;;;19.71;77.47;100649.56;7382734;19;19952;-61
2022/10/26 11:30:21;;;;;;;;;;;;;;;19.77;77.27;100667.38;7387915;19;20270;-62
2022/10/26 11:32:50;;;;;;;;;;;;;;;19.82;76.56;100664.06;7389234;19;19923;-62
2022/10/26 11:35:20;;;;;;;;;;;;;;;19.88;75.13;100676.56;7386000;19;19922;-62
2022/10/26 11:38:02;;;;;;;;;;;;;;;19.95;74.22;100680.81;7388934;19;19926;-61
2022/10/26 11:40:29;;;;;;;;;;;;;;;19.98;72.48;100682.22;7388189;19;19926;-61
2022/10/26 11:43:25;;;;;;;;;;;;;;;20.00;72.24;100682.84;7384996;19;19926;-62
2022/10/26 11:46:07;;;;;;;;;;;;;;;19.99;72.31;100692.69;7384641;19;20348;-62
2022/10/26 11:48:42;;;;;;;;;;;;;;;20.01;72.42;100695.16;7386677;19;20328;-62
2022/10/26 11:51:17;;;;;;;;;;;;;;;20.04;72.24;100694.72;7385733;19;19926;-62
2022/10/26 11:53:45;;;;;;;;;;;;;;;20.06;71.50;100701.47;7384915;19;19918;-62
2022/10/26 11:56:15;;;;;;;;;;;;;;;20.11;71.58;100708.84;7383126;19;19954;-62
2022/10/26 11:58:43;;;;;;;;;;;;;;;20.10;69.94;100720.56;7385208;19;19914;-62
2022/10/26 12:01:12;;;;;;;;;;;;;;;20.10;69.13;100722.41;7386100;19;19922;-62
2022/10/26 12:03:45;;;;;;;;;;;;;;;20.08;69.13;100723.44;7386540;19;19926;-62
2022/10/26 12:06:17;;;;;;;;;;;;;;;20.07;69.60;100710.31;7386993;19;20535;-63
2022/10/26 12:08:46;;;;;;;;;;;;;;;20.08;69.47;100725.31;7386800;19;19935;-62
2022/10/26 12:11:36;;;;;;;;;;;;;;;20.08;69.53;100738.66;7386243;19;20261;-62
2022/10/26 12:14:07;;;;;;;;;;;;;;;20.07;68.91;100739.69;7387525;19;20279;-60
2022/10/26 12:16:45;;;;;;;;;;;;;;;20.06;68.78;100738.88;7385418;19;19919;-61
2022/10/26 12:19:18;;;;;;;;;;;;;;;20.06;69.22;100748.75;7388287;19;19939;-62
2022/10/26 12:21:49;;;;;;;;;;;;;;;20.06;68.86;100744.22;7388069;19;19940;-62
2022/10/26 12:24:24;;;;;;;;;;;;;;;20.06;66.08;100740.75;7386310;19;20023;-62
2022/10/26 12:26:52;;;;;;;;;;;;;;;20.07;65.92;100750.38;7383756;19;19919;-62
2022/10/26 12:29:22;;;;;;;;;;;;;;;20.12;66.27;100755.88;7385139;19;19918;-62
2022/10/26 12:31:49;;;;;;;;;;;;;;;20.16;66.72;100751.78;7386785;19;19951;-62
2022/10/26 12:34:23;;;;;;;;;;;;;;;20.15;65.41;100768.84;7386953;19;19926;-62
2022/10/26 12:36:56;;;;;;;;;;;;;;;20.13;66.17;100754.03;7385065;19;19950;-62
2022/10/26 12:39:28;;;;;;;;;;;;;;;20.07;67.18;100782.44;7387504;19;19978;-62
2022/10/26 12:41:56;;;;;;;;;;;;;;;20.04;65.66;100766.84;7384984;19;19918;-62
2022/10/26 12:44:36;;;;;;;;;;;;;;;19.97;65.14;100772.22;7384917;19;19911;-63
2022/10/26 12:47:03;;;;;;;;;;;;;;;19.96;67.49;100775.94;7386416;19;19939;-63
2022/10/26 12:49:49;;;;;;;;;;;;;;;19.95;67.06;100785.00;7385948;19;19922;-63
2022/10/26 12:52:27;;;;;;;;;;;;;;;19.95;67.17;100787.69;7385410;19;19938;-63